SBI1404 UUDD-UWPP
Flight info
| Callsign | SBI1404 |
|---|---|
| Flight time | 1h 13m |
| Altitude | 33000 |
| Route | TOGMO4S TOGMO M56 NERIK NERIK1N |
| Aircraft | A320/M-SDE3FGHIRWY/LB1 |
Departure
| Time | 2026-04-15 14:31 |
|---|---|
| Airport | Domodedovo International Airport (UUDD) |
Arrival
| Time | 2026-04-15 15:44 |
|---|---|
| Airport | Penza Airport (UWPP) |
| Time | Latitude | Longitude | Altitude | Speed | Heading |
|---|---|---|---|---|---|
| 2026-04-15 13:20 | 55.41176 | 37.89920 | 575 ft | 0 kts | 40° |
| 2026-04-15 14:14 | 55.41160 | 37.89888 | 748 ft | 4 kts | 65° |
| 2026-04-15 14:14 | 55.41148 | 37.89846 | 508 ft | 4 kts | 60° |
| 2026-04-15 14:14 | 55.41134 | 37.89806 | 574 ft | 4 kts | 50° |
| 2026-04-15 14:15 | 55.41115 | 37.89775 | 574 ft | 4 kts | 21° |
| 2026-04-15 14:15 | 55.41096 | 37.89773 | 574 ft | 1 kts | 326° |
| 2026-04-15 14:20 | 55.41104 | 37.89763 | 575 ft | 4 kts | 324° |
| 2026-04-15 14:20 | 55.41110 | 37.89754 | 575 ft | 0 kts | 323° |
| 2026-04-15 14:21 | 55.41112 | 37.89751 | 575 ft | 2 kts | 322° |
| 2026-04-15 14:21 | 55.41126 | 37.89736 | 576 ft | 0 kts | 328° |
| 2026-04-15 14:22 | 55.41138 | 37.89718 | 577 ft | 8 kts | 315° |
| 2026-04-15 14:22 | 55.41144 | 37.89642 | 578 ft | 2 kts | 250° |
| 2026-04-15 14:22 | 55.41124 | 37.89597 | 578 ft | 8 kts | 230° |
| 2026-04-15 14:22 | 55.41073 | 37.89547 | 577 ft | 8 kts | 167° |
| 2026-04-15 14:23 | 55.41003 | 37.89621 | 573 ft | 13 kts | 145° |
| 2026-04-15 14:23 | 55.40922 | 37.89685 | 570 ft | 11 kts | 196° |
| 2026-04-15 14:23 | 55.40880 | 37.89584 | 570 ft | 9 kts | 238° |
| 2026-04-15 14:23 | 55.40842 | 37.89510 | 570 ft | 7 kts | 226° |
| 2026-04-15 14:24 | 55.40808 | 37.89427 | 570 ft | 11 kts | 241° |
| 2026-04-15 14:24 | 55.40783 | 37.89285 | 571 ft | 13 kts | 272° |
| 2026-04-15 14:24 | 55.40816 | 37.89154 | 573 ft | 11 kts | 308° |
| 2026-04-15 14:24 | 55.40865 | 37.89077 | 573 ft | 8 kts | 323° |
| 2026-04-15 14:25 | 55.40901 | 37.89031 | 575 ft | 5 kts | 324° |
| 2026-04-15 14:25 | 55.40954 | 37.88965 | 576 ft | 15 kts | 325° |
| 2026-04-15 14:25 | 55.41056 | 37.88843 | 577 ft | 19 kts | 327° |
| 2026-04-15 14:25 | 55.41165 | 37.88713 | 577 ft | 19 kts | 325° |
| 2026-04-15 14:26 | 55.41277 | 37.88576 | 579 ft | 20 kts | 326° |
| 2026-04-15 14:26 | 55.41395 | 37.88436 | 580 ft | 21 kts | 326° |
| 2026-04-15 14:26 | 55.41516 | 37.88291 | 581 ft | 21 kts | 325° |
| 2026-04-15 14:26 | 55.41641 | 37.88139 | 582 ft | 22 kts | 325° |
| 2026-04-15 14:27 | 55.41768 | 37.87985 | 583 ft | 23 kts | 325° |
| 2026-04-15 14:27 | 55.41894 | 37.87835 | 590 ft | 20 kts | 326° |
| 2026-04-15 14:27 | 55.42002 | 37.87706 | 595 ft | 19 kts | 326° |
| 2026-04-15 14:27 | 55.42107 | 37.87579 | 599 ft | 18 kts | 325° |
| 2026-04-15 14:28 | 55.42177 | 37.87449 | 598 ft | 14 kts | 275° |
| 2026-04-15 14:28 | 55.42128 | 37.87306 | 596 ft | 14 kts | 223° |
| 2026-04-15 14:28 | 55.42051 | 37.87291 | 595 ft | 9 kts | 156° |
| 2026-04-15 14:28 | 55.42018 | 37.87327 | 596 ft | 0 kts | 146° |
| 2026-04-15 14:29 | 55.42016 | 37.87329 | 596 ft | 2 kts | 146° |
| 2026-04-15 14:30 | 55.41920 | 37.87443 | 594 ft | 40 kts | 145° |
| 2026-04-15 14:30 | 55.41498 | 37.87952 | 586 ft | 105 kts | 146° |
| 2026-04-15 14:30 | 55.40747 | 37.88855 | 574 ft | 155 kts | 146° |
| 2026-04-15 14:30 | 55.39950 | 37.89804 | 738 ft | 173 kts | 146° |
| 2026-04-15 14:31 | 55.38976 | 37.90925 | 1425 ft | 165 kts | 143° |
| 2026-04-15 14:31 | 55.37939 | 37.91825 | 2111 ft | 171 kts | 158° |
| 2026-04-15 14:31 | 55.36791 | 37.92404 | 2673 ft | 175 kts | 155° |
| 2026-04-15 14:31 | 55.35591 | 37.93097 | 3127 ft | 188 kts | 154° |
| 2026-04-15 14:32 | 55.34278 | 37.93891 | 3468 ft | 212 kts | 155° |
| 2026-04-15 14:32 | 55.32820 | 37.94753 | 3919 ft | 229 kts | 156° |
| 2026-04-15 14:32 | 55.31244 | 37.95322 | 3999 ft | 236 kts | 175° |
| 2026-04-15 14:32 | 55.29672 | 37.94661 | 4049 ft | 261 kts | 202° |
| 2026-04-15 14:33 | 55.28097 | 37.92853 | 4896 ft | 273 kts | 208° |
| 2026-04-15 14:33 | 55.26586 | 37.91084 | 5937 ft | 273 kts | 207° |
| 2026-04-15 14:33 | 55.24993 | 37.89257 | 6939 ft | 274 kts | 207° |
| 2026-04-15 14:33 | 55.23507 | 37.87573 | 7642 ft | 278 kts | 206° |
| 2026-04-15 14:34 | 55.21881 | 37.85736 | 7916 ft | 278 kts | 206° |
| 2026-04-15 14:34 | 55.20261 | 37.83902 | 7997 ft | 277 kts | 206° |
| 2026-04-15 14:34 | 55.18645 | 37.82067 | 8002 ft | 277 kts | 206° |
| 2026-04-15 14:34 | 55.17184 | 37.80479 | 8002 ft | 274 kts | 201° |
| 2026-04-15 14:35 | 55.15427 | 37.79289 | 8137 ft | 272 kts | 188° |
| 2026-04-15 14:35 | 55.13586 | 37.78538 | 9048 ft | 271 kts | 187° |
| 2026-04-15 14:35 | 55.11749 | 37.77761 | 9966 ft | 272 kts | 187° |
| 2026-04-15 14:35 | 55.09891 | 37.76973 | 10463 ft | 288 kts | 188° |
| 2026-04-15 14:36 | 55.07903 | 37.76135 | 10994 ft | 298 kts | 188° |
| 2026-04-15 14:36 | 55.05870 | 37.75273 | 11694 ft | 303 kts | 188° |
| 2026-04-15 14:36 | 55.03808 | 37.74394 | 12418 ft | 307 kts | 188° |
| 2026-04-15 14:36 | 55.01715 | 37.73537 | 13174 ft | 309 kts | 184° |
| 2026-04-15 14:37 | 54.99587 | 37.73289 | 13933 ft | 305 kts | 172° |
| 2026-04-15 14:37 | 54.97502 | 37.73846 | 14570 ft | 303 kts | 160° |
| 2026-04-15 14:37 | 54.95470 | 37.74903 | 15060 ft | 307 kts | 159° |
| 2026-04-15 14:37 | 54.93420 | 37.75969 | 15183 ft | 307 kts | 159° |
| 2026-04-15 14:38 | 54.91386 | 37.77013 | 15195 ft | 307 kts | 160° |
| 2026-04-15 14:38 | 54.89338 | 37.78058 | 15198 ft | 307 kts | 160° |
| 2026-04-15 14:38 | 54.87290 | 37.79101 | 15198 ft | 307 kts | 160° |
| 2026-04-15 14:38 | 54.85327 | 37.80456 | 15199 ft | 302 kts | 147° |
| 2026-04-15 14:39 | 54.83684 | 37.82685 | 15198 ft | 299 kts | 132° |
| 2026-04-15 14:39 | 54.82488 | 37.85635 | 15377 ft | 303 kts | 116° |
| 2026-04-15 14:39 | 54.81816 | 37.89113 | 16051 ft | 307 kts | 102° |
| 2026-04-15 14:39 | 54.81526 | 37.92807 | 16701 ft | 311 kts | 100° |
| 2026-04-15 14:40 | 54.81255 | 37.96556 | 17314 ft | 315 kts | 99° |
| 2026-04-15 14:40 | 54.80986 | 38.00348 | 17928 ft | 319 kts | 99° |
| 2026-04-15 14:40 | 54.80719 | 38.04085 | 18513 ft | 323 kts | 99° |
| 2026-04-15 14:40 | 54.80443 | 38.07965 | 19045 ft | 326 kts | 99° |
| 2026-04-15 14:41 | 54.80162 | 38.11882 | 19568 ft | 329 kts | 99° |
| 2026-04-15 14:41 | 54.79875 | 38.15817 | 20085 ft | 333 kts | 100° |
| 2026-04-15 14:41 | 54.79582 | 38.19818 | 20617 ft | 336 kts | 100° |
| 2026-04-15 14:41 | 54.79286 | 38.23853 | 21083 ft | 340 kts | 100° |
| 2026-04-15 14:42 | 54.78987 | 38.27927 | 21190 ft | 341 kts | 100° |
| 2026-04-15 14:42 | 54.78686 | 38.32002 | 21206 ft | 341 kts | 100° |
| 2026-04-15 14:42 | 54.78384 | 38.36072 | 21206 ft | 341 kts | 100° |
| 2026-04-15 14:42 | 54.78082 | 38.40141 | 21190 ft | 341 kts | 99° |
| 2026-04-15 14:43 | 54.77777 | 38.44235 | 21206 ft | 343 kts | 99° |
| 2026-04-15 14:43 | 54.77470 | 38.48298 | 21213 ft | 344 kts | 99° |
| 2026-04-15 14:43 | 54.77172 | 38.52197 | 21208 ft | 344 kts | 99° |
| 2026-04-15 14:43 | 54.76829 | 38.56334 | 21225 ft | 350 kts | 104° |
| 2026-04-15 14:44 | 54.76082 | 38.60293 | 21209 ft | 345 kts | 116° |
| 2026-04-15 14:44 | 54.74836 | 38.63820 | 21207 ft | 345 kts | 129° |
| 2026-04-15 14:44 | 54.73115 | 38.66832 | 21324 ft | 360 kts | 141° |
| 2026-04-15 14:44 | 54.70998 | 38.69233 | 21692 ft | 368 kts | 148° |
| 2026-04-15 14:45 | 54.68792 | 38.71526 | 22159 ft | 372 kts | 148° |
| 2026-04-15 14:45 | 54.66564 | 38.73841 | 22669 ft | 376 kts | 148° |
| 2026-04-15 14:45 | 54.64314 | 38.76175 | 23161 ft | 379 kts | 148° |
| 2026-04-15 14:45 | 54.62050 | 38.78530 | 23727 ft | 380 kts | 148° |
| 2026-04-15 14:46 | 54.59786 | 38.80886 | 24214 ft | 381 kts | 148° |
| 2026-04-15 14:46 | 54.57541 | 38.83221 | 24631 ft | 383 kts | 148° |
| 2026-04-15 14:46 | 54.55255 | 38.85597 | 25038 ft | 385 kts | 148° |
| 2026-04-15 14:46 | 54.52953 | 38.87985 | 25394 ft | 388 kts | 148° |
| 2026-04-15 14:47 | 54.50633 | 38.90387 | 25774 ft | 390 kts | 148° |
| 2026-04-15 14:47 | 54.48298 | 38.92797 | 26142 ft | 393 kts | 148° |
| 2026-04-15 14:47 | 54.45948 | 38.95216 | 26511 ft | 395 kts | 148° |
| 2026-04-15 14:47 | 54.43584 | 38.97642 | 26876 ft | 397 kts | 148° |
| 2026-04-15 14:48 | 54.41307 | 39.00334 | 27224 ft | 399 kts | 140° |
| 2026-04-15 14:48 | 54.39340 | 39.03695 | 27567 ft | 401 kts | 130° |
| 2026-04-15 14:48 | 54.37746 | 39.07632 | 27899 ft | 404 kts | 120° |
| 2026-04-15 14:48 | 54.36562 | 39.12012 | 28239 ft | 407 kts | 113° |
| 2026-04-15 14:49 | 54.35490 | 39.16505 | 28571 ft | 409 kts | 114° |
| 2026-04-15 14:49 | 54.34406 | 39.21021 | 28882 ft | 411 kts | 114° |
| 2026-04-15 14:49 | 54.33306 | 39.25575 | 29143 ft | 415 kts | 114° |
| 2026-04-15 14:49 | 54.32234 | 39.30008 | 29425 ft | 417 kts | 114° |
| 2026-04-15 14:50 | 54.31122 | 39.34605 | 29722 ft | 419 kts | 114° |
| 2026-04-15 14:50 | 54.30002 | 39.39221 | 30009 ft | 421 kts | 114° |
| 2026-04-15 14:50 | 54.28889 | 39.43791 | 30288 ft | 423 kts | 114° |
| 2026-04-15 14:50 | 54.27752 | 39.48440 | 30532 ft | 424 kts | 114° |
| 2026-04-15 14:51 | 54.26611 | 39.53109 | 30768 ft | 426 kts | 114° |
| 2026-04-15 14:51 | 54.25468 | 39.57787 | 31008 ft | 427 kts | 114° |
| 2026-04-15 14:51 | 54.24322 | 39.62476 | 31231 ft | 428 kts | 114° |
| 2026-04-15 14:51 | 54.23169 | 39.67173 | 31452 ft | 429 kts | 114° |
| 2026-04-15 14:52 | 54.22009 | 39.71879 | 31678 ft | 430 kts | 114° |
| 2026-04-15 14:52 | 54.20844 | 39.76580 | 31946 ft | 430 kts | 114° |
| 2026-04-15 14:52 | 54.19678 | 39.81273 | 32237 ft | 429 kts | 114° |
| 2026-04-15 14:52 | 54.18511 | 39.85960 | 32545 ft | 428 kts | 114° |
| 2026-04-15 14:53 | 54.17348 | 39.90629 | 32836 ft | 427 kts | 114° |
| 2026-04-15 14:53 | 54.16190 | 39.95286 | 33114 ft | 426 kts | 114° |
| 2026-04-15 14:53 | 54.15030 | 39.99931 | 33407 ft | 425 kts | 114° |
| 2026-04-15 14:53 | 54.13867 | 40.04571 | 33697 ft | 424 kts | 114° |
| 2026-04-15 14:54 | 54.12706 | 40.09191 | 33918 ft | 425 kts | 113° |
| 2026-04-15 14:54 | 54.11620 | 40.13817 | 34121 ft | 427 kts | 108° |
| 2026-04-15 14:54 | 54.10770 | 40.18669 | 34308 ft | 428 kts | 107° |
| 2026-04-15 14:54 | 54.09933 | 40.23540 | 34490 ft | 429 kts | 107° |
| 2026-04-15 14:55 | 54.09093 | 40.28431 | 34692 ft | 429 kts | 107° |
| 2026-04-15 14:55 | 54.08245 | 40.33310 | 34895 ft | 430 kts | 107° |
| 2026-04-15 14:55 | 54.07392 | 40.38182 | 35092 ft | 430 kts | 107° |
| 2026-04-15 14:56 | 54.05688 | 40.47892 | 35185 ft | 426 kts | 107° |
| 2026-04-15 14:56 | 54.03997 | 40.57526 | 35185 ft | 424 kts | 107° |
| 2026-04-15 14:57 | 54.02307 | 40.67142 | 35179 ft | 424 kts | 107° |
| 2026-04-15 14:57 | 54.00601 | 40.76760 | 35179 ft | 426 kts | 107° |
| 2026-04-15 14:58 | 53.98878 | 40.86404 | 35176 ft | 427 kts | 107° |
| 2026-04-15 14:58 | 53.97153 | 40.95982 | 35171 ft | 427 kts | 107° |
| 2026-04-15 14:59 | 53.95406 | 41.05618 | 35169 ft | 427 kts | 107° |
| 2026-04-15 14:59 | 53.93782 | 41.15310 | 35169 ft | 427 kts | 105° |
| 2026-04-15 15:00 | 53.92246 | 41.25038 | 35159 ft | 427 kts | 105° |
| 2026-04-15 15:00 | 53.90697 | 41.34619 | 35155 ft | 427 kts | 106° |
| 2026-04-15 15:01 | 53.89071 | 41.44306 | 35151 ft | 427 kts | 106° |
| 2026-04-15 15:01 | 53.87450 | 41.53989 | 35143 ft | 427 kts | 106° |
| 2026-04-15 15:02 | 53.85840 | 41.63613 | 35141 ft | 428 kts | 106° |
| 2026-04-15 15:02 | 53.84198 | 41.73303 | 35136 ft | 428 kts | 106° |
| 2026-04-15 15:03 | 53.82544 | 41.83000 | 35139 ft | 429 kts | 106° |
| 2026-04-15 15:03 | 53.80879 | 41.92697 | 35137 ft | 429 kts | 107° |
| 2026-04-15 15:04 | 53.79210 | 42.02396 | 35143 ft | 429 kts | 106° |
| 2026-04-15 15:04 | 53.77532 | 42.12082 | 35145 ft | 429 kts | 107° |
| 2026-04-15 15:05 | 53.75839 | 42.21753 | 35141 ft | 429 kts | 107° |
| 2026-04-15 15:05 | 53.74145 | 42.31418 | 35132 ft | 429 kts | 106° |
| 2026-04-15 15:06 | 53.71875 | 42.44269 | 35123 ft | 429 kts | 107° |
| 2026-04-15 15:06 | 53.70152 | 42.53927 | 35127 ft | 429 kts | 107° |
| 2026-04-15 15:07 | 53.68707 | 42.62013 | 35131 ft | 430 kts | 107° |
| 2026-04-15 15:07 | 53.66991 | 42.71710 | 35131 ft | 430 kts | 105° |
| 2026-04-15 15:08 | 53.65461 | 42.81460 | 35132 ft | 430 kts | 104° |
| 2026-04-15 15:08 | 53.63997 | 42.91172 | 35128 ft | 431 kts | 104° |
| 2026-04-15 15:09 | 53.62488 | 43.00864 | 35129 ft | 432 kts | 105° |
| 2026-04-15 15:09 | 53.60926 | 43.10652 | 34149 ft | 438 kts | 105° |
| 2026-04-15 15:10 | 53.60112 | 43.15676 | 32736 ft | 451 kts | 105° |
| 2026-04-15 15:10 | 53.59288 | 43.20771 | 32017 ft | 448 kts | 105° |
| 2026-04-15 15:10 | 53.58474 | 43.25784 | 31476 ft | 441 kts | 105° |
| 2026-04-15 15:10 | 53.57673 | 43.30731 | 30897 ft | 436 kts | 105° |
| 2026-04-15 15:11 | 53.56883 | 43.35637 | 30321 ft | 432 kts | 104° |
| 2026-04-15 15:11 | 53.56100 | 43.40496 | 29687 ft | 428 kts | 105° |
| 2026-04-15 15:11 | 53.55322 | 43.45293 | 29140 ft | 423 kts | 105° |
| 2026-04-15 15:11 | 53.54548 | 43.50031 | 28591 ft | 418 kts | 104° |
| 2026-04-15 15:12 | 53.53783 | 43.54712 | 28049 ft | 413 kts | 105° |
| 2026-04-15 15:12 | 53.53024 | 43.59341 | 27511 ft | 409 kts | 105° |
| 2026-04-15 15:12 | 53.52269 | 43.63922 | 26985 ft | 405 kts | 104° |
| 2026-04-15 15:12 | 53.51517 | 43.68453 | 26468 ft | 401 kts | 104° |
| 2026-04-15 15:13 | 53.50773 | 43.72943 | 25965 ft | 397 kts | 104° |
| 2026-04-15 15:13 | 53.50031 | 43.77393 | 25469 ft | 394 kts | 104° |
| 2026-04-15 15:13 | 53.49303 | 43.81739 | 24992 ft | 390 kts | 104° |
| 2026-04-15 15:13 | 53.48567 | 43.86106 | 24518 ft | 388 kts | 105° |
| 2026-04-15 15:14 | 53.47838 | 43.90440 | 24061 ft | 385 kts | 104° |
| 2026-04-15 15:14 | 53.47114 | 43.94751 | 23571 ft | 383 kts | 104° |
| 2026-04-15 15:14 | 53.46400 | 43.99034 | 23086 ft | 379 kts | 104° |
| 2026-04-15 15:14 | 53.45693 | 44.03268 | 22636 ft | 374 kts | 104° |
| 2026-04-15 15:15 | 53.44995 | 44.07451 | 22188 ft | 371 kts | 105° |
| 2026-04-15 15:15 | 53.44298 | 44.11594 | 21739 ft | 367 kts | 104° |
| 2026-04-15 15:15 | 53.43603 | 44.15686 | 21294 ft | 364 kts | 104° |
| 2026-04-15 15:15 | 53.42910 | 44.19752 | 20836 ft | 361 kts | 104° |
| 2026-04-15 15:16 | 53.42222 | 44.23784 | 20380 ft | 358 kts | 105° |
| 2026-04-15 15:16 | 53.41536 | 44.27785 | 19922 ft | 356 kts | 105° |
| 2026-04-15 15:16 | 53.40849 | 44.31762 | 19467 ft | 354 kts | 105° |
| 2026-04-15 15:16 | 53.40167 | 44.35711 | 19002 ft | 352 kts | 105° |
| 2026-04-15 15:17 | 53.39486 | 44.39645 | 18545 ft | 351 kts | 105° |
| 2026-04-15 15:17 | 53.38808 | 44.43561 | 18051 ft | 349 kts | 105° |
| 2026-04-15 15:17 | 53.38137 | 44.47449 | 17592 ft | 346 kts | 105° |
| 2026-04-15 15:17 | 53.37378 | 44.51201 | 17133 ft | 344 kts | 114° |
| 2026-04-15 15:18 | 53.36181 | 44.54650 | 16710 ft | 343 kts | 125° |
| 2026-04-15 15:18 | 53.34578 | 44.57593 | 16271 ft | 342 kts | 136° |
| 2026-04-15 15:18 | 53.32679 | 44.59986 | 15829 ft | 342 kts | 142° |
| 2026-04-15 15:18 | 53.30743 | 44.62271 | 15388 ft | 340 kts | 143° |
| 2026-04-15 15:19 | 53.28815 | 44.64548 | 14951 ft | 338 kts | 142° |
| 2026-04-15 15:19 | 53.26899 | 44.66816 | 14513 ft | 337 kts | 143° |
| 2026-04-15 15:19 | 53.24993 | 44.69079 | 14072 ft | 336 kts | 142° |
| 2026-04-15 15:19 | 53.23096 | 44.71333 | 13588 ft | 334 kts | 142° |
| 2026-04-15 15:20 | 53.21209 | 44.73573 | 13036 ft | 334 kts | 142° |
| 2026-04-15 15:20 | 53.19313 | 44.75820 | 12526 ft | 333 kts | 142° |
| 2026-04-15 15:20 | 53.17430 | 44.78044 | 12077 ft | 330 kts | 142° |
| 2026-04-15 15:20 | 53.15564 | 44.80246 | 11623 ft | 327 kts | 142° |
| 2026-04-15 15:21 | 53.13715 | 44.82431 | 11176 ft | 325 kts | 143° |
| 2026-04-15 15:21 | 53.11892 | 44.84579 | 10721 ft | 322 kts | 142° |
| 2026-04-15 15:21 | 53.10066 | 44.86723 | 10294 ft | 320 kts | 143° |
| 2026-04-15 15:21 | 53.08303 | 44.88787 | 10168 ft | 308 kts | 142° |
| 2026-04-15 15:22 | 53.06573 | 44.90808 | 10025 ft | 296 kts | 142° |
| 2026-04-15 15:22 | 53.04929 | 44.92730 | 9843 ft | 287 kts | 142° |
| 2026-04-15 15:22 | 53.03310 | 44.94624 | 9487 ft | 285 kts | 142° |
| 2026-04-15 15:22 | 53.01813 | 44.96754 | 9023 ft | 284 kts | 130° |
| 2026-04-15 15:23 | 53.00703 | 44.99424 | 8728 ft | 276 kts | 116° |
| 2026-04-15 15:23 | 52.99883 | 45.02241 | 8523 ft | 267 kts | 114° |
| 2026-04-15 15:23 | 52.99075 | 45.04989 | 8203 ft | 264 kts | 115° |
| 2026-04-15 15:23 | 52.98266 | 45.07721 | 7805 ft | 263 kts | 115° |
| 2026-04-15 15:24 | 52.97457 | 45.10451 | 7399 ft | 264 kts | 115° |
| 2026-04-15 15:24 | 52.96650 | 45.13173 | 7022 ft | 262 kts | 114° |
| 2026-04-15 15:24 | 52.95849 | 45.15880 | 6607 ft | 262 kts | 114° |
| 2026-04-15 15:24 | 52.95290 | 45.18756 | 6044 ft | 264 kts | 93° |
| 2026-04-15 15:25 | 52.95522 | 45.21761 | 5471 ft | 267 kts | 69° |
| 2026-04-15 15:25 | 52.96554 | 45.24336 | 4914 ft | 274 kts | 44° |
| 2026-04-15 15:25 | 52.98004 | 45.25861 | 4379 ft | 280 kts | 28° |
| 2026-04-15 15:25 | 52.99836 | 45.27340 | 3781 ft | 283 kts | 29° |
| 2026-04-15 15:26 | 53.01719 | 45.28353 | 3200 ft | 292 kts | 7° |
| 2026-04-15 15:26 | 53.03687 | 45.27577 | 2948 ft | 294 kts | 333° |
| 2026-04-15 15:26 | 53.05079 | 45.25253 | 2932 ft | 285 kts | 306° |
| 2026-04-15 15:26 | 53.05883 | 45.22344 | 2860 ft | 272 kts | 284° |
| 2026-04-15 15:27 | 53.06006 | 45.19431 | 2587 ft | 255 kts | 275° |
| 2026-04-15 15:27 | 53.06480 | 45.16746 | 2296 ft | 237 kts | 308° |
| 2026-04-15 15:27 | 53.07387 | 45.14483 | 2022 ft | 238 kts | 304° |
| 2026-04-15 15:27 | 53.08147 | 45.12049 | 1741 ft | 236 kts | 301° |
| 2026-04-15 15:28 | 53.08823 | 45.09725 | 1463 ft | 232 kts | 298° |
| 2026-04-15 15:28 | 53.09529 | 45.07328 | 1212 ft | 227 kts | 299° |
| 2026-04-15 15:28 | 53.10216 | 45.04986 | 1377 ft | 227 kts | 299° |
| 2026-04-15 15:28 | 53.10891 | 45.02592 | 1644 ft | 231 kts | 291° |
| 2026-04-15 15:29 | 53.10970 | 44.99893 | 2126 ft | 243 kts | 254° |
| 2026-04-15 15:29 | 53.10459 | 44.97116 | 2143 ft | 253 kts | 261° |
| 2026-04-15 15:29 | 53.10409 | 44.94292 | 2272 ft | 244 kts | 271° |
| 2026-04-15 15:29 | 53.10352 | 44.91561 | 2393 ft | 247 kts | 269° |
| 2026-04-15 15:30 | 53.10257 | 44.88699 | 2521 ft | 249 kts | 268° |
| 2026-04-15 15:30 | 53.10157 | 44.85806 | 2649 ft | 250 kts | 268° |
| 2026-04-15 15:30 | 53.09861 | 44.82977 | 2784 ft | 248 kts | 251° |
| 2026-04-15 15:30 | 53.09254 | 44.80328 | 2908 ft | 249 kts | 246° |
| 2026-04-15 15:31 | 53.08470 | 44.77777 | 2939 ft | 247 kts | 226° |
| 2026-04-15 15:31 | 53.07164 | 44.76054 | 2938 ft | 235 kts | 199° |
| 2026-04-15 15:31 | 53.05624 | 44.75365 | 2939 ft | 228 kts | 181° |
| 2026-04-15 15:31 | 53.04105 | 44.75595 | 2938 ft | 216 kts | 153° |
| 2026-04-15 15:32 | 53.02749 | 44.76630 | 2936 ft | 212 kts | 142° |
| 2026-04-15 15:32 | 53.01626 | 44.78161 | 2937 ft | 207 kts | 128° |
| 2026-04-15 15:32 | 53.00674 | 44.79944 | 2936 ft | 206 kts | 126° |
| 2026-04-15 15:32 | 52.99756 | 44.81764 | 2936 ft | 205 kts | 125° |
| 2026-04-15 15:33 | 52.98842 | 44.83589 | 2935 ft | 205 kts | 125° |
| 2026-04-15 15:33 | 52.97960 | 44.85447 | 2934 ft | 203 kts | 114° |
| 2026-04-15 15:33 | 52.97441 | 44.87593 | 2938 ft | 201 kts | 104° |
| 2026-04-15 15:33 | 52.97042 | 44.89813 | 2937 ft | 201 kts | 103° |
| 2026-04-15 15:34 | 52.96664 | 44.92042 | 2941 ft | 201 kts | 103° |
| 2026-04-15 15:34 | 52.96293 | 44.94266 | 2939 ft | 199 kts | 103° |
| 2026-04-15 15:34 | 52.95924 | 44.96477 | 2939 ft | 201 kts | 103° |
| 2026-04-15 15:34 | 52.95548 | 44.98727 | 2935 ft | 203 kts | 103° |
| 2026-04-15 15:35 | 52.95165 | 45.00982 | 2936 ft | 203 kts | 103° |
| 2026-04-15 15:35 | 52.94785 | 45.03230 | 2938 ft | 203 kts | 103° |
| 2026-04-15 15:35 | 52.94414 | 45.05458 | 2937 ft | 203 kts | 103° |
| 2026-04-15 15:35 | 52.94037 | 45.07691 | 2934 ft | 199 kts | 103° |
| 2026-04-15 15:36 | 52.93655 | 45.09896 | 2941 ft | 199 kts | 103° |
| 2026-04-15 15:36 | 52.93280 | 45.12103 | 2942 ft | 199 kts | 103° |
| 2026-04-15 15:36 | 52.92908 | 45.14274 | 2943 ft | 200 kts | 103° |
| 2026-04-15 15:36 | 52.92526 | 45.16512 | 2943 ft | 201 kts | 103° |
| 2026-04-15 15:37 | 52.92147 | 45.18736 | 2940 ft | 200 kts | 103° |
| 2026-04-15 15:37 | 52.91889 | 45.20978 | 2939 ft | 198 kts | 86° |
| 2026-04-15 15:37 | 52.92068 | 45.23231 | 2940 ft | 197 kts | 79° |
| 2026-04-15 15:37 | 52.92343 | 45.25462 | 2939 ft | 197 kts | 78° |
| 2026-04-15 15:38 | 52.92620 | 45.27681 | 2936 ft | 195 kts | 78° |
| 2026-04-15 15:38 | 52.92977 | 45.29768 | 2936 ft | 187 kts | 60° |
| 2026-04-15 15:38 | 52.93908 | 45.31295 | 2942 ft | 192 kts | 39° |
| 2026-04-15 15:38 | 52.95049 | 45.32495 | 2940 ft | 195 kts | 36° |
| 2026-04-15 15:39 | 52.96220 | 45.33643 | 2944 ft | 196 kts | 35° |
| 2026-04-15 15:39 | 52.97414 | 45.34752 | 2943 ft | 198 kts | 29° |
| 2026-04-15 15:39 | 52.98801 | 45.35038 | 2944 ft | 210 kts | 358° |
| 2026-04-15 15:39 | 53.00224 | 45.34310 | 2948 ft | 219 kts | 340° |
| 2026-04-15 15:40 | 53.01515 | 45.32908 | 2950 ft | 227 kts | 321° |
| 2026-04-15 15:40 | 53.02506 | 45.30828 | 2956 ft | 234 kts | 304° |
| 2026-04-15 15:40 | 53.03250 | 45.28489 | 2946 ft | 225 kts | 300° |
| 2026-04-15 15:40 | 53.03919 | 45.26210 | 2949 ft | 220 kts | 300° |
| 2026-04-15 15:41 | 53.04562 | 45.24034 | 2974 ft | 200 kts | 301° |
| 2026-04-15 15:41 | 53.05155 | 45.22039 | 2870 ft | 181 kts | 302° |
| 2026-04-15 15:41 | 53.05691 | 45.20241 | 2703 ft | 172 kts | 303° |
| 2026-04-15 15:41 | 53.06217 | 45.18481 | 2501 ft | 168 kts | 303° |
| 2026-04-15 15:42 | 53.06730 | 45.16759 | 2281 ft | 165 kts | 304° |
| 2026-04-15 15:42 | 53.07239 | 45.15050 | 2047 ft | 165 kts | 303° |
| 2026-04-15 15:42 | 53.07744 | 45.13348 | 1866 ft | 163 kts | 303° |
| 2026-04-15 15:42 | 53.08241 | 45.11674 | 1620 ft | 160 kts | 301° |
| 2026-04-15 15:43 | 53.08726 | 45.10041 | 1393 ft | 156 kts | 301° |
| 2026-04-15 15:43 | 53.09197 | 45.08449 | 1169 ft | 154 kts | 300° |
| 2026-04-15 15:43 | 53.09664 | 45.06872 | 960 ft | 149 kts | 300° |
| 2026-04-15 15:43 | 53.10115 | 45.05331 | 753 ft | 148 kts | 299° |
| 2026-04-15 15:44 | 53.10563 | 45.03819 | 617 ft | 138 kts | 301° |
| 2026-04-15 15:44 | 53.10936 | 45.02641 | 603 ft | 104 kts | 294° |
| 2026-04-15 15:44 | 53.11187 | 45.01733 | 597 ft | 70 kts | 296° |
| 2026-04-15 15:44 | 53.11361 | 45.01150 | 596 ft | 43 kts | 296° |
| 2026-04-15 15:45 | 53.11459 | 45.00835 | 593 ft | 17 kts | 301° |
| 2026-04-15 15:45 | 53.11507 | 45.00800 | 594 ft | 5 kts | 25° |
| 2026-04-15 15:45 | 53.11526 | 45.00836 | 595 ft | 6 kts | 56° |
| 2026-04-15 15:45 | 53.11557 | 45.00915 | 596 ft | 11 kts | 57° |
| 2026-04-15 15:46 | 53.11611 | 45.01048 | 596 ft | 13 kts | 56° |
| 2026-04-15 15:46 | 53.11638 | 45.01177 | 596 ft | 15 kts | 95° |
| 2026-04-15 15:46 | 53.11626 | 45.01388 | 596 ft | 19 kts | 96° |
| 2026-04-15 15:46 | 53.11614 | 45.01587 | 596 ft | 16 kts | 95° |
| 2026-04-15 15:47 | 53.11606 | 45.01746 | 596 ft | 0 kts | 95° |
| 2026-04-15 15:48 | 53.11606 | 45.01747 | 596 ft | 0 kts | 95° |
| 2026-04-15 15:48 | 53.11604 | 45.01803 | 596 ft | 8 kts | 94° |
| 2026-04-15 15:48 | 53.11598 | 45.01899 | 596 ft | 9 kts | 96° |
| 2026-04-15 15:49 | 53.11590 | 45.02015 | 596 ft | 11 kts | 96° |
| 2026-04-15 15:49 | 53.11582 | 45.02154 | 596 ft | 13 kts | 95° |
| 2026-04-15 15:49 | 53.11577 | 45.02316 | 596 ft | 15 kts | 91° |
| 2026-04-15 15:49 | 53.11577 | 45.02453 | 596 ft | 9 kts | 90° |
| 2026-04-15 15:50 | 53.11596 | 45.02527 | 596 ft | 8 kts | 20° |
| 2026-04-15 15:50 | 53.11644 | 45.02528 | 596 ft | 8 kts | 358° |
| 2026-04-15 15:50 | 53.11683 | 45.02528 | 596 ft | 3 kts | 359° |
| 2026-04-15 15:50 | 53.11699 | 45.02517 | 596 ft | 2 kts | 327° |
| 2026-04-15 15:51 | 53.11708 | 45.02499 | 596 ft | 3 kts | 307° |
| 2026-04-15 15:51 | 53.11711 | 45.02474 | 597 ft | 2 kts | 275° |
| 2026-04-15 15:51 | 53.11711 | 45.02461 | 598 ft | 1 kts | 271° |
| 2026-04-15 15:51 | 53.11711 | 45.02456 | 597 ft | 2 kts | 270° |
| 2026-04-15 15:52 | 53.11711 | 45.02428 | 596 ft | 2 kts | 270° |
| 2026-04-15 15:52 | 53.11711 | 45.02420 | 596 ft | 0 kts | 270° |
| 2026-04-15 16:34 | 53.11711 | 45.02421 | 596 ft | 0 kts | 270° |